Erwin, North Carolina
Current Conditions -  °F | °C
As of 7:15 AM on Wednesday 26 Nov 2014 (Local Time) from KHRJ Reporting Station
Moderate Rain Moderate Rain  
Wind Chill: 45°   Ceiling: 700
Heat Index: 49°   Visibility: 4mi
Dew Point: 49°   Wind: 10mph
Humidity: 100%   Direction: 340°NNW
Pressure: 29.87"   Gusts: 17mph
Location:  35.33°N, 78.68°W
Report Text: KHRJ 261215Z AUTO 34009G15KT 4SM RA BKN007 OVC011 10/10 A2987 RMK AO2 P0005 T00970097
Loading
Personal Weather Stations






























Interactive Weather Map New forecast layout! Learn more

10-Day Weather Forecast

Advertisements
Track Severe Weather on mobile